Time;durP1;ratioP1;P1;durP2;ratioP2;P2;SDS_P1;SDS_P2;PMS_P1;PMS_P2;Temp;Humidity;BMP_temperature;BMP_pressure;BME280_temperature;BME280_humidity;BME280_pressure;Samples;Min_cycle;Max_cycle;Signal;HPM_P1;HPM_P2
2022/03/21 00:00:47;;;;;;;69.93;47.17;;;;;;;2.78;100.00;102948.84;5050837;28;20045;-26
2022/03/21 00:03:16;;;;;;;65.25;45.17;;;;;;;2.80;100.00;102957.78;5049669;28;20045;-27
2022/03/21 00:05:45;;;;;;;65.47;44.58;;;;;;;2.81;100.00;102959.44;5047434;28;20049;-32
2022/03/21 00:08:15;;;;;;;70.63;47.92;;;;;;;2.82;100.00;102955.63;5049885;28;20048;-27
2022/03/21 00:10:43;;;;;;;64.75;44.33;;;;;;;2.83;100.00;102952.69;5050985;28;20060;-27
2022/03/21 00:13:15;;;;;;;68.95;46.38;;;;;;;2.82;100.00;102964.75;5038803;28;20048;-27
2022/03/21 00:15:45;;;;;;;70.55;47.67;;;;;;;2.83;100.00;102969.22;5049845;28;20059;-28
2022/03/21 00:18:14;;;;;;;65.90;44.80;;;;;;;2.82;100.00;102970.28;5051738;28;20045;-28
2022/03/21 00:20:43;;;;;;;67.88;45.70;;;;;;;2.79;100.00;102970.69;5051829;28;20131;-26
2022/03/21 00:23:11;;;;;;;67.50;45.53;;;;;;;2.80;100.00;102985.34;5050992;28;20403;-29
2022/03/21 00:25:39;;;;;;;67.93;44.95;;;;;;;2.80;100.00;102979.81;5051685;28;20053;-26
2022/03/21 00:28:08;;;;;;;66.82;43.88;;;;;;;2.74;100.00;102979.53;5051544;28;20056;-26
2022/03/21 00:30:36;;;;;;;69.45;45.28;;;;;;;2.73;100.00;102979.75;5051015;28;20597;-27
2022/03/21 00:33:06;;;;;;;68.10;44.33;;;;;;;2.72;100.00;102984.41;5051757;28;20091;-27
2022/03/21 00:35:34;;;;;;;65.85;44.92;;;;;;;2.72;100.00;102989.06;5051706;28;20056;-30
2022/03/21 00:38:02;;;;;;;65.60;45.13;;;;;;;2.72;100.00;102989.91;5049969;28;20458;-27
2022/03/21 00:40:30;;;;;;;70.60;46.75;;;;;;;2.72;100.00;102995.44;5051510;28;20041;-27
2022/03/21 00:42:58;;;;;;;64.75;43.42;;;;;;;2.75;100.00;102997.78;5051524;28;20483;-29
2022/03/21 00:45:27;;;;;;;67.63;45.63;;;;;;;2.78;100.00;103001.22;5050923;28;20040;-26
2022/03/21 00:47:55;;;;;;;58.72;39.08;;;;;;;2.78;100.00;102996.56;5051606;28;20045;-27
2022/03/21 00:50:25;;;;;;;57.60;40.03;;;;;;;2.78;100.00;102998.47;5050748;28;20179;-29
2022/03/21 00:52:56;;;;;;;70.60;46.13;;;;;;;2.72;100.00;103005.59;5051421;28;20053;-26
2022/03/21 00:55:26;;;;;;;73.88;46.78;;;;;;;2.70;100.00;103004.94;5051237;28;20049;-26
2022/03/21 00:57:54;;;;;;;71.35;46.30;;;;;;;2.67;100.00;103002.56;5039739;28;20132;-27
2022/03/21 01:00:25;;;;;;;67.15;45.15;;;;;;;2.64;100.00;103008.47;5051328;28;20033;-27
2022/03/21 01:02:53;;;;;;;73.15;47.65;;;;;;;2.62;100.00;103005.03;5051407;28;20139;-27
2022/03/21 01:05:22;;;;;;;70.88;46.30;;;;;;;2.62;100.00;103011.41;5050300;28;20040;-28
2022/03/21 01:07:52;;;;;;;71.70;47.15;;;;;;;2.61;100.00;103001.44;5046998;28;20045;-34
2022/03/21 01:10:22;;;;;;;71.30;47.00;;;;;;;2.59;100.00;103002.69;5048062;28;20053;-30
2022/03/21 01:12:51;;;;;;;64.30;43.63;;;;;;;2.57;100.00;103008.41;5048787;28;20041;-28
2022/03/21 01:15:21;;;;;;;67.13;43.90;;;;;;;2.57;100.00;103010.31;5049237;28;20048;-27
2022/03/21 01:17:49;;;;;;;61.05;40.55;;;;;;;2.56;100.00;103003.06;5049318;28;20063;-27
2022/03/21 01:20:19;;;;;;;58.22;39.72;;;;;;;2.53;100.00;103003.47;5048990;28;20040;-27
2022/03/21 01:22:48;;;;;;;71.25;47.40;;;;;;;2.49;100.00;103000.22;5049820;28;20049;-28
2022/03/21 01:25:17;;;;;;;72.75;46.92;;;;;;;2.51;100.00;103002.78;5050931;28;20464;-27
2022/03/21 01:27:45;;;;;;;73.72;46.60;;;;;;;2.47;100.00;103005.06;5050333;28;20041;-26
2022/03/21 01:30:15;;;;;;;76.00;48.58;;;;;;;2.48;100.00;103009.53;5051024;28;20131;-28
2022/03/21 01:32:45;;;;;;;79.00;50.75;;;;;;;2.51;100.00;103008.31;5050179;28;20049;-27
2022/03/21 01:35:15;;;;;;;79.57;49.63;;;;;;;2.52;100.00;103010.03;5050336;28;20464;-28
2022/03/21 01:37:43;;;;;;;76.97;48.45;;;;;;;2.54;100.00;102997.75;5051082;28;20141;-26
2022/03/21 01:40:12;;;;;;;74.72;47.70;;;;;;;2.56;100.00;102995.66;5050238;28;20060;-27
2022/03/21 01:42:43;;;;;;;68.85;45.08;;;;;;;2.62;100.00;103007.78;5050795;28;20045;-26
2022/03/21 01:45:12;;;;;;;69.63;44.75;;;;;;;2.63;100.00;103006.75;5050648;28;20565;-28
2022/03/21 01:47:41;;;;;;;73.90;48.03;;;;;;;2.63;100.00;103006.75;5050069;28;20044;-25
2022/03/21 01:50:11;;;;;;;72.38;47.00;;;;;;;2.65;100.00;103011.03;5051302;28;20045;-28
2022/03/21 01:52:41;;;;;;;72.88;45.45;;;;;;;2.65;100.00;103012.94;5043904;28;20512;-26
2022/03/21 01:57:59;;;;;;;66.45;43.88;;;;;;;2.61;100.00;103009.69;5044548;28;20055;-34
2022/03/21 02:00:27;;;;;;;73.50;46.88;;;;;;;2.59;100.00;103016.47;5054651;28;20044;-28
2022/03/21 02:02:55;;;;;;;71.47;46.75;;;;;;;2.56;100.00;103005.84;5053581;28;20053;-27
2022/03/21 02:05:23;;;;;;;72.45;47.13;;;;;;;2.54;100.00;103008.78;5054297;28;20509;-33
2022/03/21 02:07:52;;;;;;;72.20;46.50;;;;;;;2.50;100.00;103017.63;5053423;28;20116;-28
2022/03/21 02:10:20;;;;;;;76.03;47.38;;;;;;;2.47;100.00;103012.50;5043311;28;20052;-28
2022/03/21 02:12:48;;;;;;;79.20;49.67;;;;;;;2.47;100.00;103023.50;5054316;28;20052;-27
2022/03/21 02:15:18;;;;;;;74.57;47.30;;;;;;;2.49;100.00;103019.53;5053705;28;20041;-27
2022/03/21 02:17:47;;;;;;;63.70;42.00;;;;;;;2.52;100.00;103021.03;5054015;28;20504;-28
2022/03/21 02:20:18;;;;;;;65.60;43.95;;;;;;;2.52;100.00;103023.78;5050937;28;20144;-28
2022/03/21 02:22:54;;;;;;;65.60;43.60;;;;;;;2.50;100.00;103023.13;5053079;28;20065;-28
2022/03/21 02:25:31;;;;;;;68.05;44.70;;;;;;;2.50;100.00;103014.88;5054387;28;20048;-26
2022/03/21 02:28:01;;;;;;;65.78;43.17;;;;;;;2.49;100.00;103022.28;5054146;28;20059;-26
2022/03/21 02:30:31;;;;;;;65.63;42.97;;;;;;;2.49;100.00;103026.94;5053414;28;20135;-30
2022/03/21 02:33:01;;;;;;;70.82;45.72;;;;;;;2.46;100.00;103030.94;5053712;28;20056;-27
2022/03/21 02:35:30;;;;;;;62.95;41.30;;;;;;;2.41;100.00;103019.63;5053918;28;20059;-28
2022/03/21 02:37:59;;;;;;;69.97;45.17;;;;;;;2.39;100.00;103014.34;5052914;28;20060;-28
2022/03/21 02:40:29;;;;;;;65.57;42.50;;;;;;;2.34;100.00;103019.56;5053674;28;20045;-27
2022/03/21 02:42:57;;;;;;;58.08;38.13;;;;;;;2.33;100.00;103012.34;5052986;28;20099;-27
2022/03/21 02:45:25;;;;;;;68.30;45.03;;;;;;;2.29;100.00;103016.50;5053489;28;20041;-27
2022/03/21 02:47:53;;;;;;;65.20;42.17;;;;;;;2.28;100.00;103019.47;5053519;28;20834;-33
2022/03/21 02:50:39;;;;;;;63.45;41.72;;;;;;;2.28;100.00;103023.06;5053008;28;20052;-32
2022/03/21 02:53:09;;;;;;;61.17;39.78;;;;;;;2.24;100.00;103023.63;5046519;28;20043;-34
2022/03/21 02:55:40;;;;;;;65.80;43.10;;;;;;;2.24;100.00;103027.25;5053416;28;20049;-29
2022/03/21 02:58:08;;;;;;;62.83;40.42;;;;;;;2.24;100.00;103023.63;5052489;28;20052;-26
2022/03/21 03:00:35;;;;;;;62.38;42.45;;;;;;;2.20;100.00;103023.16;5053301;28;20041;-26
2022/03/21 03:03:03;;;;;;;60.60;40.08;;;;;;;2.19;100.00;103029.72;5053097;28;20056;-34
2022/03/21 03:05:31;;;;;;;66.18;43.67;;;;;;;2.17;100.00;103030.97;5052441;28;20045;-34
2022/03/21 03:07:59;;;;;;;64.10;40.30;;;;;;;2.17;100.00;103029.06;5053199;28;20051;-31
2022/03/21 03:10:30;;;;;;;65.10;41.90;;;;;;;2.15;100.00;103031.16;5053119;28;20059;-29
2022/03/21 03:12:59;;;;;;;56.53;37.33;;;;;;;2.14;100.00;103023.06;5052310;28;20044;-28
2022/03/21 03:15:26;;;;;;;63.25;41.28;;;;;;;2.13;100.00;103032.38;5052981;28;20051;-27
2022/03/21 03:17:54;;;;;;;72.10;44.35;;;;;;;2.11;100.00;103028.97;5053140;28;20362;-28
2022/03/21 03:20:22;;;;;;;70.75;45.65;;;;;;;2.12;100.00;103027.91;5052185;28;20045;-27
2022/03/21 03:22:50;;;;;;;68.78;44.13;;;;;;;2.11;100.00;103024.31;5052882;28;20140;-30
2022/03/21 03:25:18;;;;;;;72.15;47.40;;;;;;;2.12;100.00;103034.28;5052146;28;20083;-29
2022/03/21 03:27:46;;;;;;;70.15;43.63;;;;;;;2.10;100.00;103028.09;5053172;28;20388;-36
2022/03/21 03:30:15;;;;;;;65.00;41.83;;;;;;;2.11;100.00;103028.97;5052841;28;20044;-28
2022/03/21 03:32:44;;;;;;;64.97;42.90;;;;;;;2.10;100.00;103028.09;5052227;28;20045;-27
2022/03/21 03:35:12;;;;;;;64.00;41.40;;;;;;;2.07;100.00;103034.84;5052456;28;20437;-27
2022/03/21 03:37:40;;;;;;;57.83;39.05;;;;;;;2.07;100.00;103028.47;5051524;28;20049;-29
2022/03/21 03:40:09;;;;;;;68.03;43.25;;;;;;;2.04;100.00;103029.72;5051939;28;20144;-27
2022/03/21 03:42:37;;;;;;;64.57;42.20;;;;;;;2.04;100.00;103043.47;5051387;28;20052;-27
2022/03/21 03:45:05;;;;;;;66.90;43.08;;;;;;;2.04;100.00;103039.88;5052467;28;20139;-28
2022/03/21 03:47:35;;;;;;;56.10;37.08;;;;;;;2.05;100.00;103045.19;5051638;28;20481;-28
2022/03/21 03:50:02;;;;;;;65.65;41.25;;;;;;;2.04;100.00;103050.88;5052360;28;20112;-28
2022/03/21 03:52:30;;;;;;;64.60;42.47;;;;;;;2.04;100.00;103050.88;5052151;28;20053;-29
2022/03/21 03:54:58;;;;;;;72.25;44.25;;;;;;;2.04;100.00;103056.38;5051932;28;20047;-30
2022/03/21 03:57:26;;;;;;;69.75;45.17;;;;;;;2.04;100.00;103053.63;5052222;28;20052;-26
2022/03/21 03:59:54;;;;;;;60.38;39.33;;;;;;;2.04;100.00;103056.38;5051969;28;20041;-28
2022/03/21 04:02:22;;;;;;;63.15;41.00;;;;;;;2.04;100.00;103050.88;5051113;28;20045;-26
2022/03/21 04:04:51;;;;;;;62.80;40.35;;;;;;;2.03;100.00;103055.53;5051706;28;20116;-30
2022/03/21 04:07:19;;;;;;;66.60;42.13;;;;;;;2.03;100.00;103057.44;5051365;28;20048;-30
2022/03/21 04:09:47;;;;;;;63.47;39.42;;;;;;;2.02;100.00;103063.97;5052026;28;20498;-31
2022/03/21 04:12:15;;;;;;;59.25;38.58;;;;;;;2.01;100.00;103067.78;5040891;28;20393;-33
2022/03/21 04:14:43;;;;;;;67.80;42.50;;;;;;;1.98;100.00;103068.19;5050563;28;20033;-27
2022/03/21 04:17:11;;;;;;;63.35;42.88;;;;;;;1.97;100.00;103066.47;5051824;28;20045;-29
2022/03/21 04:19:39;;;;;;;61.75;40.47;;;;;;;1.94;100.00;103066.84;5041277;28;20079;-27
2022/03/21 04:22:08;;;;;;;61.22;39.22;;;;;;;1.91;100.00;103065.31;5051086;28;20053;-29
2022/03/21 04:24:35;;;;;;;49.25;33.38;;;;;;;1.90;100.00;103060.00;5051873;28;20053;-26
2022/03/21 04:27:03;;;;;;;56.08;36.42;;;;;;;1.88;100.00;103062.09;5051656;28;20037;-28
2022/03/21 04:29:31;;;;;;;62.13;40.97;;;;;;;1.88;100.00;103065.69;5047241;28;20045;-27
2022/03/21 04:31:59;;;;;;;53.45;36.15;;;;;;;1.87;100.00;103054.84;5051569;28;20430;-31
2022/03/21 04:34:27;;;;;;;53.42;34.55;;;;;;;1.85;100.00;103051.44;5051734;28;20049;-30
2022/03/21 04:36:55;;;;;;;56.90;36.25;;;;;;;1.84;100.00;103057.97;5049451;28;20045;-30
2022/03/21 04:39:24;;;;;;;63.17;41.25;;;;;;;1.84;100.00;103063.50;5050226;28;20061;-26
2022/03/21 04:41:52;;;;;;;63.30;38.58;;;;;;;1.81;100.00;103059.22;5051055;28;20076;-29
2022/03/21 04:44:24;;;;;;;59.00;38.50;;;;;;;1.80;100.00;103071.25;5050558;28;20347;-26
2022/03/21 04:46:51;;;;;;;55.58;37.70;;;;;;;1.80;100.00;103070.44;5043828;28;20045;-26
2022/03/21 04:49:19;;;;;;;44.92;30.13;;;;;;;1.79;100.00;103076.97;5051448;28;20049;-27
2022/03/21 04:51:47;;;;;;;53.15;35.13;;;;;;;1.77;100.00;103079.06;5050578;28;20132;-27
2022/03/21 04:54:15;;;;;;;43.33;28.83;;;;;;;1.76;100.00;103083.72;5051217;28;20395;-30
2022/03/21 04:56:44;;;;;;;50.90;33.92;;;;;;;1.75;100.00;103089.41;5050354;28;20450;-30
2022/03/21 04:59:11;;;;;;;52.08;34.38;;;;;;;1.72;100.00;103082.38;5051451;28;20048;-28
2022/03/21 05:01:39;;;;;;;49.72;31.20;;;;;;;1.71;100.00;103092.53;5051473;28;20045;-29
2022/03/21 05:04:08;;;;;;;47.45;31.70;;;;;;;1.68;100.00;103092.88;5050777;28;20052;-28
2022/03/21 05:06:36;;;;;;;47.72;30.90;;;;;;;1.67;100.00;103091.19;5051203;28;20049;-28
2022/03/21 05:09:04;;;;;;;47.58;32.67;;;;;;;1.67;100.00;103104.06;5051120;28;20055;-26
2022/03/21 05:11:31;;;;;;;48.30;32.17;;;;;;;1.65;100.00;103096.00;5050329;28;20053;-27
2022/03/21 05:14:02;;;;;;;64.00;40.40;;;;;;;1.64;100.00;103102.53;5051052;28;20518;-26
2022/03/21 05:16:30;;;;;;;61.50;40.00;;;;;;;1.62;100.00;103101.88;5051427;28;20056;-28
2022/03/21 05:18:58;;;;;;;58.53;38.13;;;;;;;1.63;100.00;103095.34;5050122;28;20053;-31
2022/03/21 05:21:25;;;;;;;59.72;38.40;;;;;;;1.62;100.00;103103.78;5051414;28;20051;-29
2022/03/21 05:32:10;;;;;;;62.28;39.53;;;;;;;1.57;100.00;103114.50;5044139;28;20041;-27
2022/03/21 05:37:23;;;;;;;58.45;37.13;;;;;;;1.58;100.00;103116.22;5045301;28;20041;-27
2022/03/21 05:42:36;;;;;;;49.88;32.78;;;;;;;1.58;100.00;103122.56;5045431;28;20068;-27
2022/03/21 05:45:06;;;;;;;57.33;37.13;;;;;;;1.60;100.00;103116.88;5054397;28;20048;-31
2022/03/21 05:48:50;;;;;;;51.95;32.72;;;;;;;1.58;100.00;103114.31;5043081;28;20393;-28
2022/03/21 05:50:22;;;;;;;61.70;38.83;;;;;;;1.56;100.00;103112.78;5053457;28;20041;-27
2022/03/21 05:52:49;;;;;;;56.25;37.13;;;;;;;1.57;100.00;103118.09;5053838;28;20410;-27
2022/03/21 05:55:17;;;;;;;61.70;37.85;;;;;;;1.58;100.00;103127.22;5054269;28;20067;-25
2022/03/21 05:57:45;;;;;;;58.25;36.95;;;;;;;1.59;100.00;103124.28;5054778;28;20045;-27
2022/03/21 06:00:21;;;;;;;57.22;36.95;;;;;;;1.60;100.00;103125.97;5051919;28;20049;-28
2022/03/21 06:02:49;;;;;;;58.50;38.20;;;;;;;1.64;100.00;103123.69;5054809;28;20040;-27
2022/03/21 06:05:17;;;;;;;56.15;35.70;;;;;;;1.66;100.00;103133.50;5054119;28;20071;-29
2022/03/21 06:07:45;;;;;;;59.65;37.38;;;;;;;1.68;100.00;103134.16;5051991;28;20051;-28
2022/03/21 06:10:13;;;;;;;57.58;35.80;;;;;;;1.72;100.00;103131.91;5053682;28;20528;-28
2022/03/21 06:12:41;;;;;;;51.80;33.00;;;;;;;1.75;100.00;103137.03;5054276;28;20053;-28
2022/03/21 06:15:10;;;;;;;56.65;35.58;;;;;;;1.79;100.00;103137.53;5053313;28;20514;-29
2022/03/21 06:17:40;;;;;;;58.05;36.80;;;;;;;1.82;100.00;103140.75;5054112;28;20051;-31
2022/03/21 06:20:09;;;;;;;50.67;32.85;;;;;;;1.84;100.00;103138.66;5053940;28;20409;-31
2022/03/21 06:22:37;;;;;;;57.63;35.20;;;;;;;1.89;100.00;103151.88;5053345;28;20099;-30
2022/03/21 06:25:07;;;;;;;55.03;34.45;;;;;;;1.92;100.00;103151.53;5053858;28;20056;-27
2022/03/21 06:27:35;;;;;;;56.83;34.97;;;;;;;1.97;100.00;103152.69;5053851;28;20041;-28
2022/03/21 06:30:03;;;;;;;57.90;36.70;;;;;;;2.01;100.00;103151.25;5053176;28;20433;-27
2022/03/21 06:32:31;;;;;;;58.40;36.72;;;;;;;2.06;100.00;103158.94;5053715;28;20056;-30
2022/03/21 06:35:00;;;;;;;53.42;33.55;;;;;;;2.11;100.00;103158.41;5053097;28;20049;-27
2022/03/21 06:37:28;;;;;;;57.55;34.58;;;;;;;2.17;100.00;103154.91;5052988;28;20466;-27
2022/03/21 06:39:56;;;;;;;56.40;34.17;;;;;;;2.23;100.00;103159.63;5053819;28;20049;-28
2022/03/21 06:42:24;;;;;;;51.67;34.13;;;;;;;2.28;100.00;103166.31;5052803;28;20482;-30
2022/03/21 06:44:52;;;;;;;53.83;35.45;;;;;;;2.34;100.00;103162.81;5053579;28;20604;-31
2022/03/21 06:47:21;;;;;;;51.67;34.53;;;;;;;2.40;100.00;103170.31;5053219;28;20102;-26
2022/03/21 06:49:49;;;;;;;53.10;34.30;;;;;;;2.48;100.00;103174.88;5052928;28;20067;-28
2022/03/21 06:52:19;;;;;;;53.72;34.90;;;;;;;2.57;100.00;103171.00;5053553;28;20483;-27
2022/03/21 06:54:48;;;;;;;52.15;34.30;;;;;;;2.68;100.00;103175.16;5052452;28;20037;-27
2022/03/21 06:57:17;;;;;;;53.97;35.03;;;;;;;2.89;100.00;103171.66;5051316;28;20048;-27
2022/03/21 06:59:45;;;;;;;52.63;34.00;;;;;;;3.17;100.00;103174.56;5053214;28;20383;-28
2022/03/21 07:02:14;;;;;;;49.40;33.60;;;;;;;3.49;100.00;103184.28;5053224;28;20072;-29
2022/03/21 07:04:42;;;;;;;50.92;33.25;;;;;;;3.78;100.00;103181.41;5047428;28;20056;-29
2022/03/21 07:07:10;;;;;;;46.95;31.95;;;;;;;4.09;100.00;103181.91;5052126;28;20055;-30
2022/03/21 07:09:39;;;;;;;52.05;34.92;;;;;;;4.46;100.00;103191.75;5051629;28;20082;-28
2022/03/21 07:12:08;;;;;;;50.55;34.05;;;;;;;4.78;100.00;103187.53;5051008;28;20140;-28
2022/03/21 07:14:35;;;;;;;51.97;33.95;;;;;;;4.99;100.00;103181.03;5051835;28;20116;-31
2022/03/21 07:17:04;;;;;;;48.88;33.97;;;;;;;5.22;100.00;103188.13;5051818;28;20049;-29
2022/03/21 07:19:32;;;;;;;44.15;31.42;;;;;;;5.52;100.00;103186.78;5050822;28;20047;-28
2022/03/21 07:22:00;;;;;;;48.83;33.90;;;;;;;5.78;100.00;103189.63;5044051;28;20045;-29
2022/03/21 07:24:28;;;;;;;50.55;34.67;;;;;;;6.06;100.00;103189.44;5050937;28;20559;-29
2022/03/21 07:26:57;;;;;;;46.28;31.95;;;;;;;6.42;100.00;103191.78;5051217;28;20045;-29
2022/03/21 07:29:25;;;;;;;45.83;32.72;;;;;;;6.80;100.00;103185.53;5051523;28;20056;-28
2022/03/21 07:31:53;;;;;;;44.90;31.40;;;;;;;7.19;98.98;103190.97;5050917;28;20059;-33
2022/03/21 07:34:21;;;;;;;42.00;29.73;;;;;;;7.58;95.21;103180.75;5051100;28;20211;-30
2022/03/21 07:36:49;;;;;;;45.03;32.63;;;;;;;7.81;91.46;103186.56;5050750;28;20048;-30
2022/03/21 07:39:17;;;;;;;42.67;30.05;;;;;;;8.04;91.76;103190.69;5048369;28;20063;-28
2022/03/21 07:41:45;;;;;;;45.95;31.25;;;;;;;8.26;91.54;103187.31;5051563;28;20037;-28
2022/03/21 07:47:17;;;;;;;40.47;29.73;;;;;;;8.66;89.04;103188.91;5051166;28;20061;-29
2022/03/21 07:47:17;;;;;;;40.47;28.90;;;;;;;8.88;86.34;103190.19;5050450;28;20048;-29
2022/03/21 07:49:46;;;;;;;;;;;;;;;9.11;83.02;103193.13;5042751;28;20581;-31
2022/03/21 07:52:14;;;;;;;34.10;25.90;;;;;;;9.32;84.46;103189.00;5050838;28;19920;-31
2022/03/21 07:54:41;;;;;;;41.00;29.30;;;;;;;9.68;81.53;103188.09;5050416;28;20048;-36
2022/03/21 07:57:09;;;;;;;37.55;29.38;;;;;;;9.94;80.69;103192.44;5051243;28;20499;-33
2022/03/21 07:59:38;;;;;;;41.25;29.00;;;;;;;10.27;79.59;103184.41;5050176;28;20048;-29
2022/03/21 08:02:06;;;;;;;41.90;30.70;;;;;;;10.62;77.84;103197.53;5051256;28;20041;-28
2022/03/21 08:04:34;;;;;;;38.08;28.98;;;;;;;10.85;75.18;103189.16;5047153;28;20059;-29
2022/03/21 08:07:02;;;;;;;39.05;29.42;;;;;;;10.93;73.17;103185.13;5050341;28;20057;-28
2022/03/21 08:09:31;;;;;;;38.83;28.38;;;;;;;11.23;72.41;103191.38;5050406;28;20063;-28
2022/03/21 08:12:00;;;;;;;36.45;28.38;;;;;;;11.45;70.98;103191.56;5050913;28;20049;-29
2022/03/21 08:14:28;;;;;;;34.28;26.27;;;;;;;11.67;71.96;103186.13;5049789;28;20580;-28
2022/03/21 08:16:59;;;;;;;33.97;26.33;;;;;;;11.87;68.80;103186.56;5050353;28;20043;-28
2022/03/21 08:19:29;;;;;;;35.72;27.55;;;;;;;11.90;67.53;103188.84;5050842;28;20119;-29
2022/03/21 08:21:56;;;;;;;33.40;26.23;;;;;;;12.04;67.46;103193.03;5049799;28;20088;-28
2022/03/21 08:24:24;;;;;;;33.40;26.45;;;;;;;12.06;65.07;103198.38;5050527;28;20155;-28
2022/03/21 08:26:54;;;;;;;35.88;27.13;;;;;;;12.11;64.71;103198.47;5050249;28;20049;-28
2022/03/21 08:29:21;;;;;;;36.83;28.45;;;;;;;12.13;63.57;103201.03;5048670;28;20053;-29
2022/03/21 08:31:50;;;;;;;32.85;25.52;;;;;;;12.24;65.05;103205.69;5049424;28;20076;-29
2022/03/21 08:34:19;;;;;;;35.05;27.33;;;;;;;12.73;64.36;103206.81;5050134;28;20061;-28
2022/03/21 08:36:47;;;;;;;34.25;26.48;;;;;;;13.19;63.95;103202.72;5049392;28;20095;-28
2022/03/21 08:39:15;;;;;;;34.30;26.13;;;;;;;13.56;58.85;103199.28;5047984;28;20096;-28
2022/03/21 08:41:43;;;;;;;35.35;27.15;;;;;;;13.33;57.91;103201.25;5049069;28;20460;-29
2022/03/21 08:44:11;;;;;;;31.83;24.40;;;;;;;13.42;58.77;103202.47;5050470;28;20041;-29
2022/03/21 08:46:39;;;;;;;31.30;25.02;;;;;;;13.64;58.67;103194.03;5050275;28;20045;-28
2022/03/21 08:49:26;;;;;;;32.95;25.75;;;;;;;13.75;57.18;103198.66;5048988;28;20504;-29
2022/03/21 08:52:03;;;;;;;32.42;24.20;;;;;;;13.73;56.64;103205.66;5042475;28;20049;-28
2022/03/21 08:54:30;;;;;;;30.58;24.15;;;;;;;13.80;56.05;103203.47;5050010;28;20068;-28
2022/03/21 08:56:58;;;;;;;30.75;24.05;;;;;;;14.06;55.33;103205.44;5049267;28;20048;-29
2022/03/21 08:59:26;;;;;;;31.85;25.13;;;;;;;14.50;52.99;103205.31;5052500;28;20039;-29
2022/03/21 09:01:54;;;;;;;31.42;24.85;;;;;;;14.38;51.77;103213.06;5045621;28;20528;-29
2022/03/21 09:04:22;;;;;;;31.05;24.85;;;;;;;14.23;51.57;103208.13;5056091;28;20059;-30
2022/03/21 09:06:50;;;;;;;29.25;23.45;;;;;;;13.98;51.50;103203.13;5056154;28;20111;-28
2022/03/21 09:09:19;;;;;;;30.02;23.63;;;;;;;13.87;52.69;103206.06;5046071;28;20049;-30
2022/03/21 09:11:53;;;;;;;33.15;25.92;;;;;;;14.10;51.38;103212.22;5053339;28;20057;-29
2022/03/21 09:14:21;;;;;;;31.30;24.30;;;;;;;14.12;51.39;103209.16;5056794;28;20057;-28
2022/03/21 09:16:50;;;;;;;35.95;25.45;;;;;;;13.99;50.96;103207.59;5055065;28;20163;-28
2022/03/21 09:19:19;;;;;;;35.08;26.63;;;;;;;13.58;51.04;103200.72;5057273;28;20496;-28
2022/03/21 09:21:48;;;;;;;34.40;25.15;;;;;;;13.50;50.29;103205.94;5057374;28;20128;-35
2022/03/21 09:24:16;;;;;;;30.33;24.10;;;;;;;13.37;51.40;103196.81;5057027;28;20056;-30
2022/03/21 09:26:45;;;;;;;32.33;24.98;;;;;;;13.35;50.95;103206.59;5057203;28;20072;-29
2022/03/21 09:29:14;;;;;;;30.42;24.13;;;;;;;13.51;52.71;103199.22;5057113;28;20139;-30
2022/03/21 09:31:41;;;;;;;32.42;25.45;;;;;;;13.66;51.57;103210.59;5056459;28;20052;-28
2022/03/21 09:34:10;;;;;;;30.45;24.05;;;;;;;13.68;51.08;103203.63;5057564;28;20414;-30
2022/03/21 09:36:38;;;;;;;30.77;23.67;;;;;;;13.64;50.86;103208.06;5057419;28;20587;-31
2022/03/21 09:39:08;;;;;;;31.42;24.65;;;;;;;13.65;48.63;103201.34;5056529;28;20049;-29
2022/03/21 09:41:36;;;;;;;30.88;23.85;;;;;;;13.74;50.84;103198.94;5057366;28;20151;-28
2022/03/21 09:44:09;;;;;;;29.05;22.02;;;;;;;14.18;50.97;103204.44;5057472;28;20041;-29
2022/03/21 09:46:39;;;;;;;31.15;23.73;;;;;;;14.64;49.53;103202.88;5056554;28;20561;-28
2022/03/21 09:49:07;;;;;;;26.42;20.98;;;;;;;15.22;49.09;103201.84;5057072;28;20127;-29
2022/03/21 09:51:35;;;;;;;26.98;21.17;;;;;;;15.46;47.52;103196.59;5057269;28;20049;-28
2022/03/21 09:54:03;;;;;;;30.48;22.42;;;;;;;15.51;46.55;103193.81;5056538;28;20052;-33
2022/03/21 09:56:31;;;;;;;27.30;21.33;;;;;;;15.65;46.27;103203.47;5057349;28;20056;-28
2022/03/21 09:59:00;;;;;;;27.45;20.67;;;;;;;15.73;45.39;103193.66;5056337;28;20278;-28
2022/03/21 10:01:30;;;;;;;30.92;22.00;;;;;;;15.86;43.97;103198.75;5057367;28;20045;-29
2022/03/21 10:03:59;;;;;;;27.45;20.00;;;;;;;16.01;44.03;103189.47;5046371;28;20116;-27
2022/03/21 10:06:29;;;;;;;30.40;22.02;;;;;;;16.18;43.09;103199.38;5055144;28;20065;-31
2022/03/21 10:09:08;;;;;;;27.20;21.52;;;;;;;16.18;38.85;103196.56;5056986;28;20037;-29
2022/03/21 10:11:36;;;;;;;28.65;22.42;;;;;;;15.88;41.24;103192.84;5053825;28;20106;-28
2022/03/21 10:14:26;;;;;;;27.35;20.88;;;;;;;15.93;42.39;103192.84;5053516;28;20156;-34
2022/03/21 10:16:57;;;;;;;29.02;21.20;;;;;;;16.25;42.10;103192.59;5046404;28;20056;-28
2022/03/21 10:19:26;;;;;;;23.95;18.38;;;;;;;16.63;42.24;103183.59;5053845;28;20127;-29
2022/03/21 10:22:05;;;;;;;24.90;19.38;;;;;;;17.11;41.02;103192.53;5052874;28;20982;-28
2022/03/21 10:24:40;;;;;;;25.90;20.35;;;;;;;17.56;39.69;103186.72;5053881;28;20047;-29
2022/03/21 10:27:32;;;;;;;24.05;18.80;;;;;;;18.07;38.44;103191.22;5053192;28;20084;-29
2022/03/21 10:30:02;;;;;;;24.52;18.67;;;;;;;17.97;37.20;103192.16;5044008;28;20040;-27
2022/03/21 10:32:36;;;;;;;25.40;20.88;;;;;;;17.74;38.51;103192.88;5053965;28;20140;-32
2022/03/21 10:35:08;;;;;;;25.20;20.60;;;;;;;17.70;38.87;103181.31;5042690;28;20084;-29
2022/03/21 10:37:44;;;;;;;23.73;18.80;;;;;;;18.18;40.30;103193.72;5053897;28;20045;-36
2022/03/21 10:40:42;;;;;;;24.38;20.20;;;;;;;18.80;38.82;103197.69;5042718;28;20095;-35
2022/03/21 10:43:11;;;;;;;24.90;20.50;;;;;;;19.10;40.10;103193.69;5036648;28;20132;-29
2022/03/21 10:45:47;;;;;;;25.27;20.60;;;;;;;19.52;40.21;103192.09;5053311;28;20044;-29
2022/03/21 10:48:19;;;;;;;24.33;19.45;;;;;;;19.77;39.39;103193.75;5052532;28;20045;-30
2022/03/21 10:50:50;;;;;;;21.67;18.47;;;;;;;19.89;39.87;103194.13;5053528;28;20477;-29
2022/03/21 10:53:21;;;;;;;22.52;19.00;;;;;;;20.07;40.14;103198.94;5053561;28;20785;-29
2022/03/21 10:55:50;;;;;;;23.17;19.55;;;;;;;20.39;39.58;103191.66;5052684;28;20049;-30
2022/03/21 10:58:32;;;;;;;22.63;18.58;;;;;;;20.64;38.35;103191.22;5053344;28;20049;-31
2022/03/21 11:01:10;;;;;;;24.73;19.73;;;;;;;20.70;36.15;103189.97;5043438;28;20057;-30
2022/03/21 11:03:41;;;;;;;21.45;18.33;;;;;;;20.30;36.29;103183.81;5052320;28;20048;-29
2022/03/21 11:06:09;;;;;;;21.77;16.30;;;;;;;20.24;36.26;103196.41;5053275;28;20049;-31
2022/03/21 11:08:38;;;;;;;20.15;16.92;;;;;;;20.20;35.53;103195.31;5052975;28;20132;-28
2022/03/21 11:11:07;;;;;;;22.10;18.30;;;;;;;19.62;35.36;103191.94;5052170;28;20057;-29
2022/03/21 11:13:37;;;;;;;21.10;17.50;;;;;;;19.51;36.87;103193.25;5052981;28;20147;-32
2022/03/21 11:16:05;;;;;;;20.02;16.98;;;;;;;19.56;37.06;103196.00;5052671;28;20082;-29
2022/03/21 11:18:33;;;;;;;23.77;19.67;;;;;;;19.59;36.98;103199.06;5052240;28;20413;-33
2022/03/21 11:21:03;;;;;;;22.80;19.50;;;;;;;19.69;36.93;103188.75;5052833;28;20045;-30
2022/03/21 11:23:31;;;;;;;23.20;19.02;;;;;;;19.72;36.80;103186.16;5051928;28;20111;-34
2022/03/21 11:26:04;;;;;;;20.95;18.08;;;;;;;19.70;36.41;103190.44;5052591;28;20052;-30
2022/03/21 11:29:09;;;;;;;21.42;16.92;;;;;;;19.59;34.77;103182.06;5049648;28;20053;-32
2022/03/21 11:32:07;;;;;;;22.77;18.17;;;;;;;19.46;34.03;103182.78;5049706;28;20482;-29
2022/03/21 11:34:47;;;;;;;20.27;17.92;;;;;;;19.28;35.44;103186.41;5045569;28;20546;-28
2022/03/21 11:37:28;;;;;;;22.75;17.88;;;;;;;19.32;36.16;103189.50;5043078;28;20490;-28